• Join FlightAware (Why Join?)
  • Login
  • US Flag 
09:46PM EDT


 

Airport Tracker/Info


-or-


 

Live Flight TrackerFlight Track Log ✈ FLG3861 ✈ 12-Nov-2013 ✈ KDTW - KBGM

Flight Track Log - Related Links

Times and Time Zones

All times are in EST time to prevent confusion due to time zone crossing. See the FLG3861 flight status page for this flight to view local times or setup timezone preferences in your user account.

Time Position Orientation Groundspeed Altitude Reporting Facility
EST Latitude Longitude Course Direction KTS MPH feet Rate Location/Type
10:02PM 42.2294 -83.3367 35° Northeast 156 180 1,200  Level Cleveland Center
10:03PM 42.2678 -83.2997 35° Northeast 190 219 3,600 2,280 Climbing Cleveland Center
10:04PM 42.2883 -83.2756 41° Northeast 191 220 4,900 2,400 Climbing Cleveland Center
10:04PM 42.3022 -83.2339 66° East 253 291 6,100 2,220 Climbing Cleveland Center
10:05PM 42.3047 -83.1906 86° East 244 281 7,200 2,580 Climbing Cleveland Center
10:05PM 42.3094 -83.1417 83° East 267 307 8,700 2,760 Climbing Cleveland Center
10:06PM 42.3125 -83.0903 85° East 267 307 10,100 1,800 Climbing Cleveland Center
10:07PM 42.3225 -82.9789 83° East 294 338 11,700 1,560 Climbing Cleveland Center
10:08PM 42.3356 -82.8247 83° East 345 397 13,400 1,380 Climbing Cleveland Center
10:09PM 42.3464 -82.6900 84° East 360 414 14,600 1,140 Climbing Cleveland Center
10:10PM 42.3589 -82.5472 83° East 380 437 15,800 1,260 Climbing Cleveland Center
10:11PM 42.3667 -82.3994 86° East 393 452 17,200 1,020 Climbing Cleveland Center
10:12PM 42.3589 -82.2456 94° East 408 470 18,000 1,140 Climbing Cleveland Center
10:13PM 42.3517 -82.0739 93° East 409 471 19,600 1,440 Climbing Cleveland Center
10:14PM 42.3439 -81.9197 94° East 406 467 21,000 1,620 Climbing Cleveland Center
10:15PM 42.3375 -81.7750 93° East 387 445 23,000 1,440 Climbing Cleveland Center
10:16PM 42.3317 -81.6331 93° East 376 433 24,000 960 Climbing Cleveland Center
10:17PM 42.3244 -81.4881 94° East 380 437 25,000 960 Climbing Cleveland Center
10:18PM 42.3175 -81.3422 94° East 382 440 26,000 960 Climbing Cleveland Center
10:19PM 42.3106 -81.1969 94° East 383 441 27,000 900 Climbing Cleveland Center
10:20PM 42.3036 -81.0522 94° East 382 440 27,900 660 Climbing Cleveland Center
10:21PM 42.2958 -80.9056 94° East 387 445 28,400 480 Climbing Cleveland Center
10:22PM 42.2878 -80.7544 94° East 397 457 28,900 240 Climbing Cleveland Center
10:23PM 42.2797 -80.6022 94° East 401 461 29,000  Climbing Cleveland Center
10:24PM 42.2700 -80.4436 95° East 416 479 29,000  Level Cleveland Center
10:25PM 42.2622 -80.2814 94° East 428 493 29,000  Level Cleveland Center
10:26PM 42.2525 -80.1181 95° East 433 498 29,000  Level Cleveland Center
10:27PM 42.2414 -79.9428 95° East 434 499 29,000  Level Cleveland Center
10:28PM 42.2317 -79.7803 95° East 436 502 29,000  Level Cleveland Center
10:29PM 42.2214 -79.6167 95° East 440 506 29,000  Level Cleveland Center
10:30PM 42.2097 -79.4531 95° East 439 505 29,000  Level Cleveland Center
10:31PM 42.1983 -79.2867 95° East 445 512 29,000  Level Cleveland Center
10:32PM 42.1886 -79.1189 94° East 449 517 29,000 -300 Level Cleveland Center
10:33PM 42.1903 -78.9522 89° East 445 512 28,500 -840 Descending Cleveland Center
10:34PM 42.1950 -78.7622 88° East 448 516 27,300 -780 Descending Cleveland Center
10:35PM 42.1983 -78.5956 88° East 447 514 27,000 -180 Descending Cleveland Center
10:36PM 42.2011 -78.4242 89° East 454 522 27,000  Level Cleveland Center
10:38PM 42.2019 -78.2536 90° East 457 526 27,000 -240 Level Cleveland Center
10:39PM 42.2044 -78.0811 89° East 462 532 26,600 -1,380 Descending Cleveland Center
10:40PM 42.2064 -77.8758 89° East 461 531 24,200 -2,220 Descending Cleveland Center
10:41PM 42.2072 -77.7144 90° East 442 509 22,200 -1,980 Descending Cleveland Center
10:42PM 42.2083 -77.5583 89° East 424 488 20,200 -1,980 Descending Cleveland Center
10:43PM 42.2094 -77.4056 89° East 414 476 18,200 -1,800 Descending Cleveland Center
10:44PM 42.2092 -77.2550 90° East 407 468 16,600 -1,680 Descending Cleveland Center
10:45PM 42.2108 -77.1083 89° East 400 460 14,900 -1,440 Descending Cleveland Center
10:46PM 42.2117 -76.9642 90° East 391 450 13,700 -1,260 Descending Cleveland Center
10:47PM 42.2119 -76.8242 90° East 381 438 12,400 -1,260 Descending Cleveland Center
10:48PM 42.2108 -76.6883 91° East 368 423 11,200 -1,140 Descending Cleveland Center
10:49PM 42.2111 -76.5428 90° East 329 379 10,200 -1,080 Descending Cleveland Center
10:50PM 42.2114 -76.4369 90° East 293 337 9,100 -1,500 Descending Cleveland Center
10:51PM 42.2103 -76.3325 91° East 285 328 7,200 -1,680 Descending Cleveland Center
10:52PM 42.2083 -76.2278 91° East 281 323 5,700 -1,500 Descending Cleveland Center
10:53PM 42.1719 -76.1506 122° Southeast 281 323 4,200 -840 Descending Cleveland Center
10:54PM 42.1042 -76.0919 147° Southeast 286 329 4,100 -120 Descending Cleveland Center
10:55PM 42.0375 -76.0400 150° Southeast 264 304 4,000 -60 Descending New York Center
10:56PM 41.9692 -75.9844 149° Southeast 259 298 4,000  Level New York Center
10:57PM 41.9481 -75.8992 108° East 245 282 4,000  Level New York Center
10:58PM 41.9761 -75.8258 63° Northeast 222 255 4,000  Level New York Center
10:59PM 42.0256 -75.8353 352° North 169 194 4,000  Level New York Center
11:00PM 42.0761 -75.8728 331° Northwest 174 200 4,000 -180 Level New York Center
11:01PM 42.1142 -75.9036 329° Northwest 174 200 3,700 -600 Descending New York Center
11:02PM 42.1506 -75.9344 328° Northwest 157 181 2,800 -840 Descending New York Center
11:03PM 42.1806 -75.9619 326° Northwest 145 167 2,100 -720 Descending New York Center